Terminal Aerodrome Forecast
Issued by NWS Knoxville/Tri Cities, TN

Home | Current Version | Previous Version | Text Only | Print | Product List | Glossary On
Versions: 1 2 3 4 5 6 7 8 9 10 11 12 13 14 15 16 17 18 19 20 21 22 23 24 25 26 27 28 29 30 31 32
000
FTUS44 KMRX 260523
TAFTYS
TAF
KTYS 260523Z 2606/2706 35007KT P6SM -RA OVC120
     FM260800 35003KT 4SM -RA OVC050
     FM261400 VRB03KT P6SM SCT040 SCT100
     FM262000 22005KT P6SM BKN100
     FM270200 22005KT 6SM -RA OVC040=

USA.gov is the U.S. government's official web portal to all federal, state and local government web resources and services.